Time,TemperatureF,DewpointF,PressureIn,WindDirection,WindDirectionDegrees,WindSpeedMPH,WindSpeedGustMPH,Humidity,HourlyPrecipIn,Conditions,Clouds,dailyrainin,SoftwareType,DateUTC
2013-01-02 00:13:00,48.5,46.6,29.92,NNE,26,0.0,0.0,93,0.00,SCT,,0.00,WeatherDisplay:10.37,2013-01-02 05:13:00,
2013-01-02 00:28:00,48.3,46.4,29.92,NNE,26,0.0,0.0,93,0.01,SCT,,0.01,WeatherDisplay:10.37,2013-01-02 05:28:00,
2013-01-02 00:43:00,48.3,46.4,29.91,NNE,26,0.0,0.0,93,0.00,SCT,,0.01,WeatherDisplay:10.37,2013-01-02 05:43:00,
2013-01-02 00:58:00,48.3,46.4,29.92,NNE,26,0.0,0.0,93,0.01,SCT,,0.02,WeatherDisplay:10.37,2013-01-02 05:58:00,
2013-01-02 01:13:00,48.2,46.3,29.90,NNE,26,0.0,0.0,93,0.01,SCT,,0.03,WeatherDisplay:10.37,2013-01-02 06:13:00,
2013-01-02 01:28:00,48.2,46.3,29.89,NNE,26,0.0,0.0,93,0.01,SCT,,0.04,WeatherDisplay:10.37,2013-01-02 06:28:00,
2013-01-02 01:43:00,48.2,46.3,29.90,NNE,26,0.0,0.0,93,0.02,RA,,0.06,WeatherDisplay:10.37,2013-01-02 06:43:00,
2013-01-02 01:58:00,48.0,46.1,29.91,NNE,26,0.0,0.0,93,0.01,RA,,0.07,WeatherDisplay:10.37,2013-01-02 06:58:00,
2013-01-02 02:13:00,48.0,46.1,29.91,NNE,26,0.0,0.0,93,0.03,RA,,0.10,WeatherDisplay:10.37,2013-01-02 07:13:00,
2013-01-02 02:28:00,48.0,46.1,29.91,NNE,26,0.0,0.0,93,0.00,SCT,,0.10,WeatherDisplay:10.37,2013-01-02 07:28:00,
2013-01-02 02:43:00,47.9,46.0,29.89,NNE,26,0.0,0.0,93,0.01,RA,,0.11,WeatherDisplay:10.37,2013-01-02 07:43:00,
2013-01-02 02:58:00,47.7,45.8,29.90,NNE,26,0.0,0.0,93,0.00,SCT,,0.11,WeatherDisplay:10.37,2013-01-02 07:58:00,
2013-01-02 03:13:00,47.9,46.0,29.91,NNW,329,0.0,1.0,93,0.00,SCT,,0.11,WeatherDisplay:10.37,2013-01-02 08:13:00,
2013-01-02 03:28:00,47.7,45.8,29.91,NNW,329,0.0,0.0,93,0.00,SCT,,0.11,WeatherDisplay:10.37,2013-01-02 08:28:00,
2013-01-02 03:43:00,47.6,45.7,29.92,NNW,329,0.0,1.0,93,0.00,SCT,,0.11,WeatherDisplay:10.37,2013-01-02 08:43:00,
2013-01-02 03:58:00,47.3,45.4,29.92,NNE,16,0.0,1.0,93,0.01,RA,,0.12,WeatherDisplay:10.37,2013-01-02 08:58:00,
2013-01-02 04:13:00,46.8,44.9,29.92,North,351,0.0,3.0,93,0.00,SCT,,0.12,WeatherDisplay:10.37,2013-01-02 09:13:00,
2013-01-02 04:28:00,46.2,44.3,29.92,North,6,0.0,2.0,93,0.00,SCT,,0.12,WeatherDisplay:10.37,2013-01-02 09:28:00,
2013-01-02 04:43:00,45.2,43.3,29.94,NNE,13,0.0,2.0,93,0.00,SCT,,0.12,WeatherDisplay:10.37,2013-01-02 09:43:00,
2013-01-02 04:58:00,44.2,42.0,29.94,North,359,0.0,3.0,92,0.00,SCT,,0.12,WeatherDisplay:10.37,2013-01-02 09:58:00,
2013-01-02 05:13:00,43.8,41.9,29.94,NNE,17,0.0,1.0,93,0.00,SCT,,0.12,WeatherDisplay:10.37,2013-01-02 10:13:00,
2013-01-02 05:28:00,43.3,41.4,29.95,North,11,1.0,3.0,93,0.00,SCT,,0.12,WeatherDisplay:10.37,2013-01-02 10:28:00,
2013-01-02 05:43:00,42.9,41.0,29.96,NW,324,0.0,4.0,93,0.01,SCT,,0.13,WeatherDisplay:10.37,2013-01-02 10:43:00,
2013-01-02 05:58:00,42.5,40.6,29.96,NNW,334,0.0,3.0,93,0.00,SCT,,0.13,WeatherDisplay:10.37,2013-01-02 10:58:00,
2013-01-02 06:13:00,42.2,40.3,29.97,NNW,334,0.0,3.0,93,0.00,SCT,,0.13,WeatherDisplay:10.37,2013-01-02 11:13:00,
2013-01-02 06:28:00,42.1,40.2,29.97,NNW,334,0.0,0.0,93,0.00,SCT,,0.13,WeatherDisplay:10.37,2013-01-02 11:28:00,
2013-01-02 06:43:00,41.9,40.0,29.96,NNW,334,0.0,1.0,93,0.00,SCT,,0.13,WeatherDisplay:10.37,2013-01-02 11:43:00,
2013-01-02 06:58:00,41.9,40.0,29.97,NNW,334,0.0,0.0,93,0.00,SCT,,0.13,WeatherDisplay:10.37,2013-01-02 11:58:00,
2013-01-02 07:13:00,41.8,39.9,29.98,NNW,334,0.0,0.0,93,0.00,SCT,,0.13,WeatherDisplay:10.37,2013-01-02 12:13:00,
2013-01-02 07:28:00,41.8,39.9,29.99,NNW,334,0.0,0.0,93,0.00,SCT,,0.13,WeatherDisplay:10.37,2013-01-02 12:28:00,
2013-01-02 07:43:00,41.9,40.0,30.00,NNW,334,0.0,0.0,93,0.00,SCT,,0.13,WeatherDisplay:10.37,2013-01-02 12:43:00,
2013-01-02 07:58:00,42.1,40.2,30.00,NNW,336,0.0,1.0,93,0.00,SCT,,0.13,WeatherDisplay:10.37,2013-01-02 12:58:00,
2013-01-02 08:13:00,41.8,39.9,30.02,NNE,19,0.0,2.0,93,0.00,SCT,,0.13,WeatherDisplay:10.37,2013-01-02 13:13:00,
2013-01-02 08:28:00,41.5,39.6,30.02,NNE,19,0.0,1.0,93,0.00,SCT,,0.13,WeatherDisplay:10.37,2013-01-02 13:28:00,
2013-01-02 08:43:00,41.3,39.4,30.04,NNE,17,0.0,2.0,93,0.00,SCT,,0.13,WeatherDisplay:10.37,2013-01-02 13:43:00,
2013-01-02 08:58:00,41.5,39.6,30.04,NNE,16,0.0,1.0,93,0.00,SCT,,0.13,WeatherDisplay:10.37,2013-01-02 13:58:00,
2013-01-02 09:13:00,41.3,39.4,30.05,North,356,0.0,3.0,93,0.00,SCT,,0.13,WeatherDisplay:10.37,2013-01-02 14:13:00,
2013-01-02 09:28:00,41.2,39.1,30.07,North,349,0.0,9.0,92,0.00,SCT,,0.13,WeatherDisplay:10.37,2013-01-02 14:28:00,
2013-01-02 09:43:00,40.6,38.4,30.07,North,359,1.0,9.0,92,0.00,SCT,,0.13,WeatherDisplay:10.37,2013-01-02 14:43:00,
2013-01-02 09:58:00,40.8,38.4,30.08,North,356,0.0,4.0,91,0.00,SCT,,0.13,WeatherDisplay:10.37,2013-01-02 14:58:00,
2013-01-02 10:13:00,41.1,38.1,30.09,NNW,331,0.0,5.0,89,0.00,SCT,,0.13,WeatherDisplay:10.37,2013-01-02 15:13:00,
2013-01-02 10:28:00,41.2,37.3,30.08,North,352,0.0,3.0,86,0.00,SCT,,0.13,WeatherDisplay:10.37,2013-01-02 15:28:00,
2013-01-02 10:43:00,41.9,35.9,30.10,North,11,1.0,4.0,79,0.00,SCT,,0.13,WeatherDisplay:10.37,2013-01-02 15:43:00,
2013-01-02 10:58:00,42.8,34.8,30.07,NNW,336,0.0,4.0,73,0.00,SCT,,0.13,WeatherDisplay:10.37,2013-01-02 15:58:00,
2013-01-02 11:13:00,43.1,34.3,30.10,North,352,1.0,5.0,71,0.00,SCT,,0.13,WeatherDisplay:10.37,2013-01-02 16:13:00,
2013-01-02 11:28:00,44.1,34.6,30.07,NNW,333,0.0,5.0,69,0.00,SCT,,0.13,WeatherDisplay:10.37,2013-01-02 16:28:00,
2013-01-02 11:43:00,43.6,34.1,30.08,NNW,335,0.0,3.0,69,0.00,SCT,,0.13,WeatherDisplay:10.37,2013-01-02 16:43:00,
2013-01-02 11:58:00,44.5,33.1,30.07,NNW,333,1.0,4.0,64,0.00,SCT,,0.13,WeatherDisplay:10.37,2013-01-02 16:58:00,
2013-01-02 12:13:00,45.1,33.7,30.07,NNW,335,2.0,6.0,64,0.00,SCT,,0.13,WeatherDisplay:10.37,2013-01-02 17:13:00,
2013-01-02 12:28:00,46.3,33.1,30.05,NNW,348,1.0,6.0,60,0.00,SCT,,0.13,WeatherDisplay:10.37,2013-01-02 17:28:00,
2013-01-02 12:43:00,45.5,32.8,30.05,North,357,0.0,5.0,61,0.00,SCT,,0.13,WeatherDisplay:10.37,2013-01-02 17:43:00,
2013-01-02 12:58:00,46.0,33.3,30.03,NNW,334,2.0,5.0,61,0.00,SCT,,0.13,WeatherDisplay:10.37,2013-01-02 17:58:00,
2013-01-02 13:13:00,46.0,32.5,30.03,NW,310,2.0,7.0,59,0.00,SCT,,0.13,WeatherDisplay:10.37,2013-01-02 18:13:00,
2013-01-02 13:28:00,46.4,33.3,30.04,NW,324,2.0,7.0,60,0.00,SCT,,0.13,WeatherDisplay:10.37,2013-01-02 18:28:00,
2013-01-02 13:43:00,46.0,33.7,30.04,NW,305,0.0,7.0,62,0.00,SCT,,0.13,WeatherDisplay:10.37,2013-01-02 18:43:00,
2013-01-02 13:58:00,46.0,33.3,30.03,NW,314,1.0,3.0,61,0.00,SCT,,0.13,WeatherDisplay:10.37,2013-01-02 18:58:00,
2013-01-02 14:13:00,45.8,32.7,30.04,NW,317,1.0,5.0,60,0.00,SCT,,0.13,WeatherDisplay:10.37,2013-01-02 19:13:00,
2013-01-02 14:28:00,46.3,34.0,30.04,WNW,296,0.0,3.0,62,0.00,SCT,,0.13,WeatherDisplay:10.37,2013-01-02 19:28:00,
2013-01-02 14:43:00,46.2,33.1,30.05,North,350,1.0,3.0,60,0.00,SCT,,0.13,WeatherDisplay:10.37,2013-01-02 19:43:00,
2013-01-02 14:58:00,45.8,32.7,30.05,NW,320,0.0,2.0,60,0.00,SCT,,0.13,WeatherDisplay:10.37,2013-01-02 19:58:00,
2013-01-02 15:13:00,46.0,34.5,30.06,North,355,0.0,2.0,64,0.00,SCT,,0.13,WeatherDisplay:10.37,2013-01-02 20:13:00,
2013-01-02 15:28:00,45.8,33.5,30.06,North,355,0.0,1.0,62,0.00,SCT,,0.13,WeatherDisplay:10.37,2013-01-02 20:28:00,
2013-01-02 15:43:00,45.8,33.9,30.06,North,355,0.0,0.0,63,0.00,SCT,,0.13,WeatherDisplay:10.37,2013-01-02 20:43:00,
2013-01-02 15:58:00,45.5,33.2,30.08,North,355,0.0,0.0,62,0.00,SCT,,0.13,WeatherDisplay:10.37,2013-01-02 20:58:00,
2013-01-02 16:13:00,45.5,34.0,30.08,North,355,0.0,0.0,64,0.00,SCT,,0.13,WeatherDisplay:10.37,2013-01-02 21:13:00,
2013-01-02 16:28:00,45.2,33.8,30.08,North,355,0.0,0.0,64,0.00,SCT,,0.13,WeatherDisplay:10.37,2013-01-02 21:28:00,
2013-01-02 16:43:00,45.1,33.6,30.09,North,355,0.0,0.0,64,0.00,SCT,,0.13,WeatherDisplay:10.37,2013-01-02 21:43:00,
2013-01-02 16:58:00,44.8,34.1,30.09,North,355,0.0,0.0,66,0.00,SCT,,0.13,WeatherDisplay:10.37,2013-01-02 21:58:00,
2013-01-02 17:13:00,44.3,34.8,30.08,North,355,0.0,0.0,69,0.00,SCT,,0.13,WeatherDisplay:10.37,2013-01-02 22:13:00,
2013-01-02 17:28:00,44.1,34.6,30.09,North,355,0.0,0.0,69,0.00,SCT,,0.13,WeatherDisplay:10.37,2013-01-02 22:28:00,
2013-01-02 17:43:00,44.1,34.6,30.09,North,355,0.0,0.0,69,0.00,SCT,,0.13,WeatherDisplay:10.37,2013-01-02 22:43:00,
2013-01-02 17:58:00,43.9,34.4,30.09,North,355,0.0,0.0,69,0.00,SCT,,0.13,WeatherDisplay:10.37,2013-01-02 22:58:00,
2013-01-02 18:13:00,43.8,34.3,30.10,North,355,0.0,0.0,69,0.00,SCT,,0.13,WeatherDisplay:10.37,2013-01-02 23:13:00,
2013-01-02 18:28:00,43.6,34.5,30.09,North,355,0.0,0.0,70,0.00,SCT,,0.13,WeatherDisplay:10.37,2013-01-02 23:28:00,
2013-01-02 18:43:00,43.3,34.5,30.13,North,355,0.0,0.0,71,0.00,SCT,,0.13,WeatherDisplay:10.37,2013-01-02 23:43:00,
2013-01-02 18:58:00,43.2,34.8,30.13,North,355,0.0,0.0,72,0.00,SCT,,0.13,WeatherDisplay:10.37,2013-01-02 23:58:00,
2013-01-02 19:13:00,42.9,34.5,30.14,North,355,0.0,0.0,72,0.00,SCT,,0.13,WeatherDisplay:10.37,2013-01-03 00:13:00,
2013-01-02 19:28:00,42.6,33.9,30.13,North,355,0.0,1.0,71,0.00,SCT,,0.13,WeatherDisplay:10.37,2013-01-03 00:28:00,
2013-01-02 19:43:00,42.5,33.0,30.13,North,355,0.0,0.0,69,0.00,SCT,,0.13,WeatherDisplay:10.37,2013-01-03 00:43:00,
2013-01-02 19:58:00,42.3,32.5,30.14,North,355,0.0,1.0,68,0.00,SCT,,0.13,WeatherDisplay:10.37,2013-01-03 00:58:00,
2013-01-02 20:13:00,42.2,32.0,30.13,North,355,0.0,2.0,67,0.00,SCT,,0.13,WeatherDisplay:10.37,2013-01-03 01:13:00,
2013-01-02 20:28:00,41.8,30.9,30.15,North,355,0.0,2.0,65,0.00,SCT,,0.13,WeatherDisplay:10.37,2013-01-03 01:28:00,
2013-01-02 20:43:00,41.6,31.1,30.14,North,355,0.0,1.0,66,0.00,SCT,,0.13,WeatherDisplay:10.37,2013-01-03 01:43:00,
2013-01-02 20:58:00,41.5,30.6,30.16,North,355,0.0,1.0,65,0.00,SCT,,0.13,WeatherDisplay:10.37,2013-01-03 01:58:00,
2013-01-02 21:13:00,41.2,29.9,30.14,NNW,342,0.0,3.0,64,0.00,SCT,,0.13,WeatherDisplay:10.37,2013-01-03 02:13:00,
2013-01-02 21:28:00,41.1,29.5,30.15,North,349,0.0,2.0,63,0.00,SCT,,0.13,WeatherDisplay:10.37,2013-01-03 02:28:00,
2013-01-02 21:43:00,40.9,29.7,30.15,North,355,0.0,1.0,64,0.00,SCT,,0.13,WeatherDisplay:10.37,2013-01-03 02:43:00,
2013-01-02 21:58:00,40.8,29.9,30.15,North,355,0.0,2.0,65,0.00,SCT,,0.13,WeatherDisplay:10.37,2013-01-03 02:58:00,
2013-01-02 22:13:00,40.8,29.9,30.16,North,355,0.0,0.0,65,0.00,SCT,,0.13,WeatherDisplay:10.37,2013-01-03 03:13:00,
2013-01-02 22:28:00,40.6,29.7,30.16,North,355,0.0,0.0,65,0.00,SCT,,0.13,WeatherDisplay:10.37,2013-01-03 03:28:00,
2013-01-02 22:43:00,40.6,29.7,30.17,North,355,0.0,0.0,65,0.00,SCT,,0.13,WeatherDisplay:10.37,2013-01-03 03:43:00,
2013-01-02 22:58:00,40.5,30.0,30.17,North,355,0.0,0.0,66,0.00,SCT,,0.13,WeatherDisplay:10.37,2013-01-03 03:58:00,
2013-01-02 23:13:00,40.4,29.9,30.16,North,355,0.0,0.0,66,0.00,SCT,,0.13,WeatherDisplay:10.37,2013-01-03 04:13:00,
2013-01-02 23:28:00,40.3,30.2,30.16,North,355,0.0,0.0,67,0.00,SCT,,0.13,WeatherDisplay:10.37,2013-01-03 04:28:00,
2013-01-02 23:43:00,40.2,30.1,30.16,North,355,0.0,1.0,67,0.00,SCT,,0.13,WeatherDisplay:10.37,2013-01-03 04:43:00,
2013-01-02 23:58:00,40.1,30.4,30.15,North,355,0.0,0.0,68,0.00,RA,,0.00,WeatherDisplay:10.37,2013-01-03 04:58:00,